Time;durP1;ratioP1;P1;durP2;ratioP2;P2;SDS_P1;SDS_P2;PMS_P1;PMS_P2;Temp;Humidity;BMP_temperature;BMP_pressure;BME280_temperature;BME280_humidity;BME280_pressure;Samples;Min_cycle;Max_cycle;Signal;HPM_P1;HPM_P2
2021/05/06 00:35:25;;;;;;;1999.90;999.90;;;;;;;7.43;57.89;100155.91;15366928;29;20377;-60
2021/05/06 00:43:18;;;;;;;1999.90;999.90;;;;;;;7.36;57.56;100171.41;15367651;29;20043;-61
2021/05/06 00:59:06;;;;;;;1999.90;999.90;;;;;;;7.01;56.68;100164.97;15303295;29;20061;-58
2021/05/06 01:06:46;;;;;;;1999.90;999.90;;;;;;;7.12;56.90;100166.31;15290889;29;20135;-59
2021/05/06 01:14:19;;;;;;;1999.90;999.90;;;;;;;7.41;56.06;100160.16;15290728;29;20138;-58
2021/05/06 01:21:53;;;;;;;1999.90;999.90;;;;;;;7.19;57.87;100167.47;15274605;29;20055;-61
2021/05/06 01:29:28;;;;;;;1999.90;999.90;;;;;;;7.24;57.30;100158.97;15307342;29;20067;-59
2021/05/06 01:37:07;;;;;;;1999.90;999.90;;;;;;;6.85;58.37;100154.31;15301384;29;20048;-58
2021/05/06 01:45:07;;;;;;;1999.90;999.90;;;;;;;7.00;58.38;100168.91;15318421;29;20441;-60
2021/05/06 02:00:34;;;;;;;1999.90;999.90;;;;;;;7.00;58.79;100160.56;15359292;29;20059;-59
2021/05/06 02:08:23;;;;;;;1999.90;999.90;;;;;;;6.99;59.29;100154.22;15331653;29;20114;-57
2021/05/06 02:16:02;;;;;;;1999.90;999.90;;;;;;;6.80;60.23;100160.03;15299038;29;20036;-53
2021/05/06 02:23:36;;;;;;;1999.90;999.90;;;;;;;6.88;59.70;100167.56;15283080;29;20048;-53
2021/05/06 02:31:08;;;;;;;1999.90;999.90;;;;;;;6.83;59.86;100164.91;15299062;29;20528;-55
2021/05/06 02:38:41;;;;;;;1999.90;999.90;;;;;;;6.75;59.89;100164.88;15298608;29;20432;-54
2021/05/06 02:46:12;;;;;;;1999.90;999.90;;;;;;;6.73;60.17;100170.75;15313260;29;20051;-58
2021/05/06 02:53:50;;;;;;;1999.90;999.90;;;;;;;6.64;60.79;100172.66;15314101;29;20094;-55
2021/05/06 03:09:24;;;;;;;1999.90;999.90;;;;;;;6.18;62.95;100179.47;15363733;29;20050;-60
2021/05/06 03:24:49;;;;;;;1999.90;999.90;;;;;;;6.03;62.82;100175.13;15371638;29;20047;-54
2021/05/06 03:32:27;;;;;;;1999.90;999.90;;;;;;;5.83;63.31;100172.00;15365553;29;20051;-58
2021/05/06 03:48:26;;;;;;;1999.90;999.90;;;;;;;5.89;62.66;100190.97;15325180;29;20106;-55
2021/05/06 04:12:28;;;;;;;1999.90;999.90;;;;;;;6.11;61.49;100209.53;15369524;28;20058;-56
2021/05/06 04:27:53;;;;;;;1999.90;999.90;;;;;;;6.18;60.67;100207.16;15328589;28;20489;-54
2021/05/06 04:35:38;;;;;;;1999.90;999.90;;;;;;;6.54;61.01;100207.03;15290958;29;20039;-58
2021/05/06 05:06:51;;;;;;;1999.90;999.90;;;;;;;7.53;58.14;100221.41;15249863;29;20158;-61
2021/05/06 05:30:10;;;;;;;1999.90;999.90;;;;;;;9.12;54.94;100223.25;15327306;29;20119;-58
2021/05/06 05:37:45;;;;;;;1999.90;999.90;;;;;;;9.91;53.02;100229.97;15370591;29;20149;-58
2021/05/06 06:00:57;;;;;;;1999.90;999.90;;;;;;;9.50;53.65;100221.25;15347796;29;20040;-60
2021/05/06 06:08:31;;;;;;;1999.90;999.90;;;;;;;10.02;52.29;100236.75;15365570;29;20050;-59
2021/05/06 06:16:10;;;;;;;1999.90;999.90;;;;;;;10.82;51.00;100234.47;15366242;28;20039;-57
2021/05/06 06:23:41;;;;;;;1999.90;999.90;;;;;;;11.76;48.34;100222.34;15359010;29;20069;-57
2021/05/06 06:31:19;;;;;;;;;;;;;;;13.21;44.65;100214.41;15363051;29;20072;-55
2021/05/06 06:38:50;;;;;;;1999.90;999.90;;;;;;;12.90;45.11;100220.78;15375512;29;19946;-57
2021/05/06 06:46:23;;;;;;;1999.90;999.90;;;;;;;13.14;43.39;100231.03;15373168;29;20456;-57
2021/05/06 06:53:54;;;;;;;1999.90;999.90;;;;;;;12.61;44.98;100226.81;15372966;29;20529;-59
2021/05/06 07:01:27;;;;;;;1999.90;999.90;;;;;;;12.59;44.69;100224.38;15372934;29;20059;-58
2021/05/06 07:08:58;;;;;;;1999.90;999.90;;;;;;;11.55;46.76;100228.09;15374373;28;20524;-57
2021/05/06 07:16:31;;;;;;;1999.90;999.90;;;;;;;12.17;45.22;100231.56;15372173;29;20067;-60
2021/05/06 07:24:03;;;;;;;1999.90;999.90;;;;;;;11.53;44.89;100238.81;15373752;28;20047;-60
2021/05/06 07:31:35;;;;;;;1999.90;999.90;;;;;;;12.33;43.04;100224.06;15373044;28;20059;-59
2021/05/06 07:39:07;;;;;;;1999.90;999.90;;;;;;;13.10;40.55;100227.31;15372967;29;20418;-60
2021/05/06 07:46:39;;;;;;;1999.90;999.90;;;;;;;11.94;43.40;100217.31;15355093;29;20043;-56
2021/05/06 07:54:11;;;;;;;1999.90;999.90;;;;;;;12.07;44.03;100230.91;15354225;29;20529;-56
2021/05/06 08:01:43;;;;;;;1999.90;999.90;;;;;;;12.37;44.55;100219.38;15370812;29;20050;-55
2021/05/06 08:09:15;;;;;;;1999.90;999.90;;;;;;;12.82;43.65;100224.59;15353774;29;20146;-59
2021/05/06 08:16:47;;;;;;;1999.90;999.90;;;;;;;13.34;43.84;100220.75;15370603;29;20059;-57
2021/05/06 08:24:19;;;;;;;1999.90;999.90;;;;;;;13.90;41.86;100222.41;15370086;29;20489;-57
2021/05/06 08:31:51;;;;;;;1999.90;999.90;;;;;;;12.75;43.97;100210.41;15360593;29;20051;-55
2021/05/06 08:39:23;;;;;;;1999.90;999.90;;;;;;;14.53;40.70;100219.31;15367451;28;20091;-52
2021/05/06 08:47:03;;;;;;;1999.90;999.90;;;;;;;14.69;38.73;100225.63;15369253;28;20047;-54
2021/05/06 08:54:35;;;;;;;1999.90;999.90;;;;;;;13.62;40.43;100222.56;15368641;29;20110;-58
2021/05/06 09:02:08;;;;;;;1999.90;999.90;;;;;;;13.23;41.93;100230.84;15370176;28;20051;-56
2021/05/06 09:09:43;;;;;;;1999.90;999.90;;;;;;;13.22;42.67;100229.22;15367659;28;20460;-57
2021/05/06 09:17:27;;;;;;;1999.90;999.90;;;;;;;12.79;43.89;100224.50;15366591;29;20126;-58
2021/05/06 09:25:22;;;;;;;1999.90;999.90;;;;;;;12.68;45.02;100222.22;15365613;29;20051;-57
2021/05/06 09:32:59;;;;;;;1999.90;999.90;;;;;;;14.41;41.06;100203.44;15324826;23;20119;-76
2021/05/06 09:40:46;;;;;;;1999.90;999.90;;;;;;;14.31;42.14;100202.03;15348734;23;20047;-58
2021/05/06 09:48:20;;;;;;;1999.90;999.90;;;;;;;13.94;42.66;100196.03;15217943;29;20446;-60
2021/05/06 09:55:56;;;;;;;1999.90;999.90;;;;;;;13.38;44.60;100196.41;15257901;29;20477;-59
2021/05/06 10:03:32;;;;;;;1999.90;999.90;;;;;;;12.79;46.71;100193.69;15244649;29;20115;-59
2021/05/06 10:11:11;;;;;;;1999.90;999.90;;;;;;;12.27;50.01;100205.88;15245157;29;20159;-61
2021/05/06 10:18:44;;;;;;;1999.90;999.90;;;;;;;11.15;54.70;100240.00;15243969;29;20052;-61
2021/05/06 10:26:18;;;;;;;1999.90;999.90;;;;;;;10.24;63.12;100275.44;15260408;29;20044;-61
2021/05/06 10:33:52;;;;;;;1999.90;999.90;;;;;;;9.83;66.26;100279.03;15242861;29;20072;-60
2021/05/06 10:41:32;;;;;;;1999.90;999.90;;;;;;;11.15;64.56;100272.66;15228466;29;20071;-61
2021/05/06 10:49:04;;;;;;;1999.90;999.90;;;;;;;13.11;59.59;100242.94;15259827;29;20108;-61
2021/05/06 10:56:39;;;;;;;1999.90;999.90;;;;;;;17.73;51.06;100254.56;15225438;29;20107;-61
2021/05/06 11:04:11;;;;;;;1999.90;999.90;;;;;;;17.74;51.08;100250.53;15240194;29;20410;-61
2021/05/06 11:12:16;;;;;;;1999.90;999.90;;;;;;;14.94;51.84;100238.16;15241636;29;20048;-60
2021/05/06 11:19:49;;;;;;;1999.90;999.90;;;;;;;15.29;55.50;100214.63;15257564;29;20048;-61
2021/05/06 11:27:21;;;;;;;1999.90;999.90;;;;;;;16.99;49.69;100223.72;15256987;29;20445;-59
2021/05/06 11:34:53;;;;;;;1999.90;999.90;;;;;;;16.26;49.15;100217.66;15223723;29;20059;-60
2021/05/06 11:42:28;;;;;;;1999.90;999.90;;;;;;;16.70;45.05;100212.16;15238892;29;20520;-59
2021/05/06 11:50:14;;;;;;;1999.90;999.90;;;;;;;17.19;43.68;100199.69;15255494;29;20103;-60
2021/05/06 11:57:48;;;;;;;1999.90;999.90;;;;;;;15.10;45.56;100200.66;15237787;29;20123;-59
2021/05/06 12:05:23;;;;;;;1999.90;999.90;;;;;;;13.54;50.07;100193.56;15254903;29;20145;-60
2021/05/06 12:13:02;;;;;;;1999.90;999.90;;;;;;;14.28;47.91;100199.16;15237448;29;20044;-60
2021/05/06 12:20:51;;;;;;;1999.90;999.90;;;;;;;15.04;47.17;100180.53;15253191;29;20087;-60
2021/05/06 12:28:22;;;;;;;1999.90;999.90;;;;;;;15.79;45.48;100176.03;15236328;29;20561;-59
2021/05/06 12:35:55;;;;;;;1999.90;999.90;;;;;;;16.53;43.03;100164.06;15253725;29;20048;-59
2021/05/06 12:43:28;;;;;;;1999.90;999.90;;;;;;;15.61;46.99;100167.34;15253068;29;20115;-60
2021/05/06 12:51:02;;;;;;;1999.90;999.90;;;;;;;12.98;52.99;100169.41;15253340;29;20175;-58
2021/05/06 12:58:35;;;;;;;1999.90;999.90;;;;;;;16.05;49.31;100169.56;15251277;29;20132;-59
2021/05/06 13:06:09;;;;;;;;;;;;;;;19.80;38.54;100148.38;15234978;29;20044;-59
2021/05/06 13:13:42;;;;;;;1999.90;999.90;;;;;;;22.15;33.84;100142.88;15250337;29;19930;-58
2021/05/06 13:21:22;;;;;;;;;;;;;;;15.55;44.63;100138.75;15234210;29;20127;-58
2021/05/06 13:28:59;;;;;;;1999.90;999.90;;;;;;;14.31;46.17;100136.69;15242535;29;20348;-62
2021/05/06 13:36:32;;;;;;;1999.90;999.90;;;;;;;13.76;46.65;100124.78;15270068;29;20048;-58
2021/05/06 13:44:05;;;;;;;1999.90;999.90;;;;;;;15.52;45.81;100127.44;15270151;29;20299;-57
2021/05/06 13:51:38;;;;;;;1999.90;999.90;;;;;;;14.52;44.56;100119.44;15252639;29;20056;-57
2021/05/06 13:59:10;;;;;;;1999.90;999.90;;;;;;;15.13;43.89;100112.81;15269626;29;20059;-59
2021/05/06 14:06:43;;;;;;;1999.90;999.90;;;;;;;14.53;42.79;100110.66;15251932;29;20048;-59
2021/05/06 14:14:16;;;;;;;1999.90;999.90;;;;;;;15.57;41.00;100104.63;15252457;29;20055;-56
2021/05/06 14:21:53;;;;;;;1999.90;999.90;;;;;;;15.38;40.76;100099.94;15269531;29;20055;-57
2021/05/06 14:29:24;;;;;;;1999.90;999.90;;;;;;;15.54;39.81;100100.56;15235845;29;20044;-59
2021/05/06 14:36:57;;;;;;;1999.90;999.90;;;;;;;15.68;38.69;100096.34;15268146;29;20048;-56
2021/05/06 14:44:29;;;;;;;1999.90;999.90;;;;;;;15.54;37.41;100080.09;15258088;29;20720;-58
2021/05/06 14:52:01;;;;;;;1999.90;999.90;;;;;;;15.20;38.70;100084.81;15224995;29;20450;-61
2021/05/06 14:59:33;;;;;;;1999.90;999.90;;;;;;;15.41;39.58;100085.09;15257461;29;20044;-60
2021/05/06 15:07:05;;;;;;;1999.90;999.90;;;;;;;15.87;38.72;100085.75;15240082;29;20083;-61
2021/05/06 15:14:37;;;;;;;1999.90;999.90;;;;;;;15.38;38.80;100073.81;15256157;29;20052;-60
2021/05/06 15:22:09;;;;;;;1999.90;999.90;;;;;;;14.65;39.17;100071.13;15256269;29;20044;-57
2021/05/06 15:29:41;;;;;;;1999.90;999.90;;;;;;;15.05;39.48;100072.56;15239270;29;20040;-60
2021/05/06 15:37:13;;;;;;;1999.90;999.90;;;;;;;14.69;45.42;100093.66;15238267;29;20052;-58
2021/05/06 15:44:45;;;;;;;1999.90;999.90;;;;;;;13.85;49.69;100084.09;15259051;29;20077;-56
2021/05/06 15:52:18;;;;;;;1999.90;999.90;;;;;;;13.53;49.64;100072.22;15256714;29;20151;-52
2021/05/06 15:59:50;;;;;;;1999.90;999.90;;;;;;;13.64;49.93;100074.44;15240570;29;20044;-55
2021/05/06 16:07:23;;;;;;;1999.90;999.90;;;;;;;13.26;50.05;100074.06;15238530;29;20048;-55
2021/05/06 16:14:54;;;;;;;1999.90;999.90;;;;;;;13.56;49.83;100053.88;15253706;29;20083;-54
2021/05/06 16:22:27;;;;;;;1999.90;999.90;;;;;;;13.25;50.28;100058.44;15255063;29;20312;-54
2021/05/06 16:29:58;;;;;;;1999.90;999.90;;;;;;;13.55;49.01;100049.47;15238454;29;20100;-54
2021/05/06 16:37:35;;;;;;;1999.90;999.90;;;;;;;13.58;48.89;100038.31;15258466;29;20079;-55
2021/05/06 16:45:08;;;;;;;1999.90;999.90;;;;;;;13.63;48.93;100033.56;15240436;29;20505;-55
2021/05/06 16:52:41;;;;;;;;;;;;;;;13.67;48.91;100026.88;15254001;29;20063;-59
2021/05/06 17:00:13;;;;;;;1999.90;999.90;;;;;;;13.79;48.17;100023.09;15235473;29;19974;-57
2021/05/06 17:07:46;;;;;;;1999.90;999.90;;;;;;;13.54;48.90;100031.78;15218912;29;20139;-60
2021/05/06 17:15:19;;;;;;;1999.90;999.90;;;;;;;13.28;49.26;100023.25;15251931;29;20044;-61
2021/05/06 17:22:52;;;;;;;1999.90;999.90;;;;;;;13.65;48.98;100023.63;15234667;29;20048;-58
2021/05/06 17:30:25;;;;;;;1999.90;999.90;;;;;;;13.53;49.16;100020.97;15253112;29;20044;-59
2021/05/06 17:37:57;;;;;;;1999.90;999.90;;;;;;;13.42;50.06;100015.13;15222488;29;20418;-62
2021/05/06 17:45:30;;;;;;;1999.90;999.90;;;;;;;13.23;50.40;100024.38;15252834;29;20139;-60
2021/05/06 17:53:04;;;;;;;1999.90;999.90;;;;;;;12.85;51.04;100022.28;15234471;29;20490;-60
2021/05/06 18:00:36;;;;;;;1999.90;999.90;;;;;;;12.60;51.57;100032.06;15234831;29;20059;-61
2021/05/06 18:08:09;;;;;;;1999.90;999.90;;;;;;;12.77;51.97;100023.31;15251351;29;20048;-61
2021/05/06 18:15:40;;;;;;;1999.90;999.90;;;;;;;12.70;52.65;100031.53;15256832;29;20450;-60
2021/05/06 18:23:13;;;;;;;1999.90;999.90;;;;;;;12.53;52.56;100017.94;15262365;29;20127;-59
2021/05/06 18:30:45;;;;;;;1999.90;999.90;;;;;;;12.56;53.20;100017.19;15261820;29;20051;-60
2021/05/06 18:38:18;;;;;;;1999.90;999.90;;;;;;;12.38;53.44;100009.16;15244660;29;20139;-59
2021/05/06 18:45:49;;;;;;;1999.90;999.90;;;;;;;12.14;54.06;100015.78;15243178;29;20044;-60
2021/05/06 18:53:22;;;;;;;1999.90;999.90;;;;;;;12.27;54.31;100015.69;15259984;29;20509;-60
2021/05/06 19:00:54;;;;;;;1999.90;999.90;;;;;;;12.07;54.58;100023.97;15259033;29;20048;-60
2021/05/06 19:08:27;;;;;;;1999.90;999.90;;;;;;;12.14;55.15;100040.13;15239769;29;20108;-61
2021/05/06 19:15:59;;;;;;;1999.90;999.90;;;;;;;11.91;55.43;100037.13;15223791;29;20067;-58
2021/05/06 19:23:34;;;;;;;1999.90;999.90;;;;;;;12.01;55.95;100045.00;15256725;29;20184;-57
2021/05/06 19:31:06;;;;;;;1999.90;999.90;;;;;;;11.83;55.89;100047.31;15256277;29;20052;-57
2021/05/06 19:38:39;;;;;;;1999.90;999.90;;;;;;;11.78;55.98;100047.56;15256171;29;20127;-59
2021/05/06 19:46:16;;;;;;;1999.90;999.90;;;;;;;11.60;56.28;100042.63;15223015;29;20062;-60
2021/05/06 19:53:50;;;;;;;1999.90;999.90;;;;;;;11.62;56.37;100043.88;15255562;29;20072;-56
2021/05/06 20:01:21;;;;;;;1999.90;999.90;;;;;;;11.62;56.52;100034.69;15255535;29;20082;-57
2021/05/06 20:08:54;;;;;;;1999.90;999.90;;;;;;;11.59;56.56;100032.63;15238822;29;20040;-57
2021/05/06 20:16:25;;;;;;;1999.90;999.90;;;;;;;11.44;57.13;100034.19;15221887;29;20431;-59
2021/05/06 20:23:58;;;;;;;1999.90;999.90;;;;;;;11.42;56.65;100045.72;15254886;29;20044;-61
2021/05/06 20:31:29;;;;;;;1999.90;999.90;;;;;;;11.38;57.35;100042.00;15237225;29;20047;-57
2021/05/06 20:39:06;;;;;;;1999.90;999.90;;;;;;;11.22;58.72;100043.91;15236323;29;20510;-60
2021/05/06 20:46:38;;;;;;;1999.90;999.90;;;;;;;11.07;58.88;100045.47;15234926;29;20139;-58
2021/05/06 20:54:10;;;;;;;1999.90;999.90;;;;;;;11.05;58.28;100047.00;15251947;29;20044;-57
2021/05/06 21:01:42;;;;;;;1999.90;999.90;;;;;;;11.05;59.05;100050.63;15234154;29;20442;-60
2021/05/06 21:09:14;;;;;;;1999.90;999.90;;;;;;;10.85;58.41;100043.22;15251652;29;20135;-61
2021/05/06 21:16:46;;;;;;;1999.90;999.90;;;;;;;10.80;59.45;100037.84;15219418;29;20095;-60
2021/05/06 21:24:19;;;;;;;1999.90;999.90;;;;;;;10.82;60.03;100032.72;15233920;29;20052;-61
2021/05/06 21:31:52;;;;;;;1999.90;999.90;;;;;;;10.60;60.05;100029.25;15233559;29;20036;-56
2021/05/06 21:39:24;;;;;;;1999.90;999.90;;;;;;;10.61;60.07;100021.69;15258813;23;20101;-63
2021/05/06 21:47:05;;;;;;;1999.90;999.90;;;;;;;10.38;60.62;100011.03;15414696;28;20042;-61
2021/05/06 21:54:37;;;;;;;1999.90;999.90;;;;;;;10.43;60.60;100000.81;15427089;28;20039;-61
2021/05/06 22:02:09;;;;;;;1999.90;999.90;;;;;;;10.26;61.58;99999.88;15426769;28;20130;-63
2021/05/06 22:09:41;;;;;;;1999.90;999.90;;;;;;;10.08;62.33;99995.66;15426824;28;20511;-62
2021/05/06 22:17:13;;;;;;;1999.90;999.90;;;;;;;9.89;63.09;99998.16;15443561;28;20046;-62
2021/05/06 22:24:46;;;;;;;1999.90;999.90;;;;;;;9.84;63.32;99993.66;15442810;28;20043;-63
2021/05/06 22:32:18;;;;;;;1999.90;999.90;;;;;;;9.76;63.97;99997.34;15425456;28;20483;-62
2021/05/06 22:39:50;;;;;;;1999.90;999.90;;;;;;;9.63;64.70;99990.94;15443037;28;20047;-62
2021/05/06 22:47:21;;;;;;;1999.90;999.90;;;;;;;9.66;64.87;99989.41;15425975;28;20534;-62
2021/05/06 22:54:54;;;;;;;1999.90;999.90;;;;;;;9.63;64.79;99990.13;15441493;28;20039;-61
2021/05/06 23:02:26;;;;;;;1999.90;999.90;;;;;;;9.47;64.89;99981.59;15439800;28;20047;-63
2021/05/06 23:10:00;;;;;;;;;;;;;;;9.42;65.78;99993.75;15426588;28;20046;-61
2021/05/06 23:17:32;;;;;;;1999.90;999.90;;;;;;;9.15;66.04;99997.13;15407757;28;19945;-62
2021/05/06 23:25:06;;;;;;;1999.90;999.90;;;;;;;9.19;65.83;99992.53;15422895;28;20116;-62
2021/05/06 23:32:38;;;;;;;1999.90;999.90;;;;;;;9.23;64.95;99983.13;15439011;28;20043;-62
2021/05/06 23:40:11;;;;;;;1999.90;999.90;;;;;;;9.19;64.96;99982.19;15405911;28;20055;-61
2021/05/06 23:47:43;;;;;;;1999.90;999.90;;;;;;;9.21;65.69;99973.50;15421273;28;20045;-60
2021/05/06 23:55:15;;;;;;;1999.90;999.90;;;;;;;9.09;66.02;99979.03;15437914;28;20411;-60
